sensor_id;sensor_type;location;lat;lon;timestamp;P1;durP1;ratioP1;P2;durP2;ratioP2
13605;SDS011;6874;52.084;5.090;2022-11-18T00:00:47;10.23;;;9.93;;
13605;SDS011;6874;52.084;5.090;2022-11-18T00:03:13;9.77;;;9.47;;
13605;SDS011;6874;52.084;5.090;2022-11-18T00:05:39;9.90;;;9.60;;
13605;SDS011;6874;52.084;5.090;2022-11-18T00:08:05;10.37;;;10.07;;
13605;SDS011;6874;52.084;5.090;2022-11-18T00:10:30;10.53;;;10.23;;
13605;SDS011;6874;52.084;5.090;2022-11-18T00:12:56;10.77;;;10.47;;
13605;SDS011;6874;52.084;5.090;2022-11-18T00:15:40;10.33;;;10.03;;
13605;SDS011;6874;52.084;5.090;2022-11-18T00:18:06;10.63;;;10.33;;
13605;SDS011;6874;52.084;5.090;2022-11-18T00:20:32;10.57;;;10.27;;
13605;SDS011;6874;52.084;5.090;2022-11-18T00:22:58;9.03;;;8.73;;
13605;SDS011;6874;52.084;5.090;2022-11-18T00:25:24;11.03;;;10.73;;
13605;SDS011;6874;52.084;5.090;2022-11-18T00:27:50;10.07;;;9.77;;
13605;SDS011;6874;52.084;5.090;2022-11-18T00:30:16;9.33;;;9.03;;
13605;SDS011;6874;52.084;5.090;2022-11-18T00:32:41;10.47;;;10.17;;
13605;SDS011;6874;52.084;5.090;2022-11-18T00:35:07;10.10;;;9.80;;
13605;SDS011;6874;52.084;5.090;2022-11-18T00:37:33;9.77;;;9.47;;
13605;SDS011;6874;52.084;5.090;2022-11-18T00:39:58;10.23;;;9.93;;
13605;SDS011;6874;52.084;5.090;2022-11-18T00:42:24;10.27;;;9.97;;
13605;SDS011;6874;52.084;5.090;2022-11-18T00:45:08;9.30;;;9.00;;
13605;SDS011;6874;52.084;5.090;2022-11-18T00:47:34;9.37;;;9.07;;
13605;SDS011;6874;52.084;5.090;2022-11-18T00:49:59;10.57;;;10.27;;
13605;SDS011;6874;52.084;5.090;2022-11-18T00:52:25;9.70;;;9.40;;
13605;SDS011;6874;52.084;5.090;2022-11-18T00:54:50;10.10;;;9.80;;
13605;SDS011;6874;52.084;5.090;2022-11-18T00:57:16;10.67;;;10.37;;
13605;SDS011;6874;52.084;5.090;2022-11-18T00:59:41;9.93;;;9.63;;
13605;SDS011;6874;52.084;5.090;2022-11-18T01:02:07;9.63;;;9.33;;
13605;SDS011;6874;52.084;5.090;2022-11-18T01:04:32;9.97;;;9.67;;
13605;SDS011;6874;52.084;5.090;2022-11-18T01:06:58;10.43;;;10.13;;
13605;SDS011;6874;52.084;5.090;2022-11-18T01:09:23;9.83;;;9.53;;
13605;SDS011;6874;52.084;5.090;2022-11-18T01:11:49;9.33;;;9.03;;
13605;SDS011;6874;52.084;5.090;2022-11-18T01:14:33;9.53;;;9.23;;
13605;SDS011;6874;52.084;5.090;2022-11-18T01:16:59;10.00;;;9.70;;
13605;SDS011;6874;52.084;5.090;2022-11-18T01:19:24;9.17;;;8.87;;
13605;SDS011;6874;52.084;5.090;2022-11-18T01:21:50;9.20;;;8.90;;
13605;SDS011;6874;52.084;5.090;2022-11-18T01:24:16;8.57;;;8.27;;
13605;SDS011;6874;52.084;5.090;2022-11-18T01:26:41;9.20;;;8.90;;
13605;SDS011;6874;52.084;5.090;2022-11-18T01:29:07;8.47;;;8.27;;
13605;SDS011;6874;52.084;5.090;2022-11-18T01:31:33;9.00;;;8.70;;
13605;SDS011;6874;52.084;5.090;2022-11-18T01:33:58;8.27;;;8.07;;
13605;SDS011;6874;52.084;5.090;2022-11-18T01:36:25;8.27;;;8.07;;
13605;SDS011;6874;52.084;5.090;2022-11-18T01:38:52;8.30;;;8.10;;
13605;SDS011;6874;52.084;5.090;2022-11-18T01:41:19;8.57;;;8.37;;
13605;SDS011;6874;52.084;5.090;2022-11-18T01:43:58;8.27;;;8.07;;
13605;SDS011;6874;52.084;5.090;2022-11-18T01:46:26;8.50;;;8.27;;
13605;SDS011;6874;52.084;5.090;2022-11-18T01:48:54;8.93;;;8.70;;
13605;SDS011;6874;52.084;5.090;2022-11-18T01:51:25;9.80;;;9.50;;
13605;SDS011;6874;52.084;5.090;2022-11-18T01:54:01;8.77;;;8.53;;
13605;SDS011;6874;52.084;5.090;2022-11-18T01:56:38;8.57;;;8.33;;
13605;SDS011;6874;52.084;5.090;2022-11-18T01:59:17;9.77;;;9.47;;
13605;SDS011;6874;52.084;5.090;2022-11-18T02:01:46;8.40;;;8.17;;
13605;SDS011;6874;52.084;5.090;2022-11-18T02:04:11;8.87;;;8.57;;
13605;SDS011;6874;52.084;5.090;2022-11-18T02:06:38;8.27;;;8.07;;
13605;SDS011;6874;52.084;5.090;2022-11-18T02:09:05;8.53;;;8.30;;
13605;SDS011;6874;52.084;5.090;2022-11-18T02:11:31;8.93;;;8.67;;
13605;SDS011;6874;52.084;5.090;2022-11-18T02:14:19;8.67;;;8.43;;
13605;SDS011;6874;52.084;5.090;2022-11-18T02:24:55;9.40;;;9.10;;
13605;SDS011;6874;52.084;5.090;2022-11-18T02:30:11;8.77;;;8.53;;
13605;SDS011;6874;52.084;5.090;2022-11-18T02:32:43;9.27;;;8.97;;
13605;SDS011;6874;52.084;5.090;2022-11-18T02:35:46;8.87;;;8.63;;
13605;SDS011;6874;52.084;5.090;2022-11-18T02:38:11;8.90;;;8.60;;
13605;SDS011;6874;52.084;5.090;2022-11-18T02:40:44;10.10;;;9.80;;
13605;SDS011;6874;52.084;5.090;2022-11-18T02:43:15;9.70;;;9.40;;
13605;SDS011;6874;52.084;5.090;2022-11-18T02:45:45;8.70;;;8.47;;
13605;SDS011;6874;52.084;5.090;2022-11-18T02:48:15;9.43;;;9.13;;
13605;SDS011;6874;52.084;5.090;2022-11-18T02:50:43;10.23;;;9.93;;
13605;SDS011;6874;52.084;5.090;2022-11-18T02:53:13;9.50;;;9.20;;
13605;SDS011;6874;52.084;5.090;2022-11-18T02:55:42;10.50;;;10.20;;
13605;SDS011;6874;52.084;5.090;2022-11-18T02:58:09;9.43;;;9.13;;
13605;SDS011;6874;52.084;5.090;2022-11-18T03:00:37;9.20;;;8.90;;
13605;SDS011;6874;52.084;5.090;2022-11-18T03:05:52;9.60;;;9.30;;
13605;SDS011;6874;52.084;5.090;2022-11-18T03:08:28;10.57;;;10.27;;
13605;SDS011;6874;52.084;5.090;2022-11-18T03:11:02;9.63;;;9.33;;
13605;SDS011;6874;52.084;5.090;2022-11-18T03:13:42;9.30;;;9.00;;
13605;SDS011;6874;52.084;5.090;2022-11-18T03:16:24;9.60;;;9.30;;
13605;SDS011;6874;52.084;5.090;2022-11-18T03:18:55;9.70;;;9.40;;
13605;SDS011;6874;52.084;5.090;2022-11-18T03:21:36;10.07;;;9.77;;
13605;SDS011;6874;52.084;5.090;2022-11-18T03:24:17;10.77;;;10.47;;
13605;SDS011;6874;52.084;5.090;2022-11-18T03:26:49;11.77;;;11.43;;
13605;SDS011;6874;52.084;5.090;2022-11-18T03:29:22;10.53;;;10.23;;
13605;SDS011;6874;52.084;5.090;2022-11-18T03:32:04;10.00;;;9.70;;
13605;SDS011;6874;52.084;5.090;2022-11-18T03:34:36;10.60;;;10.30;;
13605;SDS011;6874;52.084;5.090;2022-11-18T03:37:08;11.00;;;10.70;;
13605;SDS011;6874;52.084;5.090;2022-11-18T03:39:38;9.37;;;9.07;;
13605;SDS011;6874;52.084;5.090;2022-11-18T03:45:33;13.80;;;13.40;;
13605;SDS011;6874;52.084;5.090;2022-11-18T03:48:22;13.87;;;13.47;;
13605;SDS011;6874;52.084;5.090;2022-11-18T03:50:52;12.83;;;12.43;;
13605;SDS011;6874;52.084;5.090;2022-11-18T03:53:26;12.80;;;12.40;;
13605;SDS011;6874;52.084;5.090;2022-11-18T03:55:57;13.03;;;12.63;;
13605;SDS011;6874;52.084;5.090;2022-11-18T03:58:39;12.30;;;11.90;;
13605;SDS011;6874;52.084;5.090;2022-11-18T04:04:28;14.77;;;14.30;;
13605;SDS011;6874;52.084;5.090;2022-11-18T04:07:02;13.13;;;12.73;;
13605;SDS011;6874;52.084;5.090;2022-11-18T04:09:41;13.97;;;13.57;;
13605;SDS011;6874;52.084;5.090;2022-11-18T04:12:12;13.83;;;13.43;;
13605;SDS011;6874;52.084;5.090;2022-11-18T04:14:42;13.57;;;13.17;;
13605;SDS011;6874;52.084;5.090;2022-11-18T04:17:10;12.60;;;12.20;;
13605;SDS011;6874;52.084;5.090;2022-11-18T04:19:38;12.63;;;12.23;;
13605;SDS011;6874;52.084;5.090;2022-11-18T04:22:04;12.07;;;11.67;;
13605;SDS011;6874;52.084;5.090;2022-11-18T04:24:31;11.53;;;11.23;;
13605;SDS011;6874;52.084;5.090;2022-11-18T04:26:56;10.57;;;10.27;;
13605;SDS011;6874;52.084;5.090;2022-11-18T04:29:22;11.43;;;11.13;;
13605;SDS011;6874;52.084;5.090;2022-11-18T04:31:48;11.57;;;11.27;;
13605;SDS011;6874;52.084;5.090;2022-11-18T04:34:14;10.60;;;10.30;;
13605;SDS011;6874;52.084;5.090;2022-11-18T04:36:39;12.77;;;12.37;;
13605;SDS011;6874;52.084;5.090;2022-11-18T04:39:05;11.73;;;11.40;;
13605;SDS011;6874;52.084;5.090;2022-11-18T04:41:30;11.03;;;10.73;;
13605;SDS011;6874;52.084;5.090;2022-11-18T04:44:15;11.07;;;10.77;;
13605;SDS011;6874;52.084;5.090;2022-11-18T04:46:41;11.93;;;11.57;;
13605;SDS011;6874;52.084;5.090;2022-11-18T04:49:07;11.87;;;11.50;;
13605;SDS011;6874;52.084;5.090;2022-11-18T04:51:34;12.70;;;12.30;;
13605;SDS011;6874;52.084;5.090;2022-11-18T04:53:59;12.60;;;12.20;;
13605;SDS011;6874;52.084;5.090;2022-11-18T04:56:25;12.70;;;12.30;;
13605;SDS011;6874;52.084;5.090;2022-11-18T04:58:50;12.90;;;12.50;;
13605;SDS011;6874;52.084;5.090;2022-11-18T05:01:16;12.20;;;11.83;;
13605;SDS011;6874;52.084;5.090;2022-11-18T05:03:42;12.47;;;12.10;;
13605;SDS011;6874;52.084;5.090;2022-11-18T05:06:07;13.23;;;12.83;;
13605;SDS011;6874;52.084;5.090;2022-11-18T05:08:33;13.10;;;12.70;;
13605;SDS011;6874;52.084;5.090;2022-11-18T05:10:58;11.87;;;11.53;;
13605;SDS011;6874;52.084;5.090;2022-11-18T05:13:44;11.40;;;11.07;;
13605;SDS011;6874;52.084;5.090;2022-11-18T05:16:09;12.10;;;11.73;;
13605;SDS011;6874;52.084;5.090;2022-11-18T05:18:34;13.47;;;13.07;;
13605;SDS011;6874;52.084;5.090;2022-11-18T05:21:03;12.23;;;11.87;;
13605;SDS011;6874;52.084;5.090;2022-11-18T05:23:30;12.17;;;11.80;;
13605;SDS011;6874;52.084;5.090;2022-11-18T05:25:55;11.60;;;11.27;;
13605;SDS011;6874;52.084;5.090;2022-11-18T05:28:20;12.80;;;12.40;;
13605;SDS011;6874;52.084;5.090;2022-11-18T05:30:46;12.47;;;12.07;;
13605;SDS011;6874;52.084;5.090;2022-11-18T05:33:11;11.77;;;11.43;;
13605;SDS011;6874;52.084;5.090;2022-11-18T05:35:37;10.90;;;10.60;;
13605;SDS011;6874;52.084;5.090;2022-11-18T05:38:02;12.43;;;12.07;;
13605;SDS011;6874;52.084;5.090;2022-11-18T05:40:28;12.97;;;12.57;;
13605;SDS011;6874;52.084;5.090;2022-11-18T05:42:53;12.93;;;12.53;;
13605;SDS011;6874;52.084;5.090;2022-11-18T05:45:38;12.10;;;11.73;;
13605;SDS011;6874;52.084;5.090;2022-11-18T05:48:05;12.80;;;12.40;;
13605;SDS011;6874;52.084;5.090;2022-11-18T05:50:33;13.53;;;13.13;;
13605;SDS011;6874;52.084;5.090;2022-11-18T05:53:00;13.87;;;13.47;;
13605;SDS011;6874;52.084;5.090;2022-11-18T05:55:28;12.93;;;12.53;;
13605;SDS011;6874;52.084;5.090;2022-11-18T05:58:14;12.83;;;12.43;;
13605;SDS011;6874;52.084;5.090;2022-11-18T06:00:39;15.17;;;14.67;;
13605;SDS011;6874;52.084;5.090;2022-11-18T06:03:07;12.47;;;12.07;;
13605;SDS011;6874;52.084;5.090;2022-11-18T06:05:41;14.77;;;14.33;;
13605;SDS011;6874;52.084;5.090;2022-11-18T06:08:06;13.40;;;13.00;;
13605;SDS011;6874;52.084;5.090;2022-11-18T06:10:34;14.70;;;14.30;;
13605;SDS011;6874;52.084;5.090;2022-11-18T06:13:02;13.87;;;13.47;;
13605;SDS011;6874;52.084;5.090;2022-11-18T06:15:34;14.00;;;13.60;;
13605;SDS011;6874;52.084;5.090;2022-11-18T06:18:08;15.67;;;15.17;;
13605;SDS011;6874;52.084;5.090;2022-11-18T06:20:44;16.20;;;15.70;;
13605;SDS011;6874;52.084;5.090;2022-11-18T06:23:10;16.83;;;16.33;;
13605;SDS011;6874;52.084;5.090;2022-11-18T06:25:37;15.37;;;14.87;;
13605;SDS011;6874;52.084;5.090;2022-11-18T06:28:04;17.80;;;17.30;;
13605;SDS011;6874;52.084;5.090;2022-11-18T06:30:30;18.47;;;17.87;;
13605;SDS011;6874;52.084;5.090;2022-11-18T06:32:55;19.60;;;19.00;;
13605;SDS011;6874;52.084;5.090;2022-11-18T06:35:21;20.03;;;19.43;;
13605;SDS011;6874;52.084;5.090;2022-11-18T06:37:46;20.23;;;19.63;;
13605;SDS011;6874;52.084;5.090;2022-11-18T06:40:12;21.50;;;20.80;;
13605;SDS011;6874;52.084;5.090;2022-11-18T06:42:38;24.20;;;23.40;;
13605;SDS011;6874;52.084;5.090;2022-11-18T06:45:23;24.97;;;24.17;;
13605;SDS011;6874;52.084;5.090;2022-11-18T06:47:48;24.07;;;23.30;;
13605;SDS011;6874;52.084;5.090;2022-11-18T06:50:14;24.97;;;24.17;;
13605;SDS011;6874;52.084;5.090;2022-11-18T06:52:40;24.43;;;23.67;;
13605;SDS011;6874;52.084;5.090;2022-11-18T06:55:05;23.77;;;23.03;;
13605;SDS011;6874;52.084;5.090;2022-11-18T06:57:32;26.00;;;25.20;;
13605;SDS011;6874;52.084;5.090;2022-11-18T06:59:58;26.20;;;25.40;;
13605;SDS011;6874;52.084;5.090;2022-11-18T07:02:24;25.00;;;24.20;;
13605;SDS011;6874;52.084;5.090;2022-11-18T07:04:49;25.17;;;24.37;;
13605;SDS011;6874;52.084;5.090;2022-11-18T07:07:15;25.97;;;25.17;;
13605;SDS011;6874;52.084;5.090;2022-11-18T07:09:41;25.87;;;25.07;;
13605;SDS011;6874;52.084;5.090;2022-11-18T07:12:06;26.77;;;25.93;;
13605;SDS011;6874;52.084;5.090;2022-11-18T07:14:32;31.27;;;30.27;;
13605;SDS011;6874;52.084;5.090;2022-11-18T07:16:57;28.00;;;27.10;;
13605;SDS011;6874;52.084;5.090;2022-11-18T07:19:23;26.03;;;25.23;;
13605;SDS011;6874;52.084;5.090;2022-11-18T07:21:49;26.27;;;25.43;;
13605;SDS011;6874;52.084;5.090;2022-11-18T07:24:14;28.30;;;27.40;;
13605;SDS011;6874;52.084;5.090;2022-11-18T07:26:40;31.43;;;30.43;;
13605;SDS011;6874;52.084;5.090;2022-11-18T07:29:07;31.50;;;30.50;;
13605;SDS011;6874;52.084;5.090;2022-11-18T07:31:32;28.17;;;27.27;;
13605;SDS011;6874;52.084;5.090;2022-11-18T07:34:01;28.93;;;28.03;;
13605;SDS011;6874;52.084;5.090;2022-11-18T07:36:27;32.30;;;31.30;;
13605;SDS011;6874;52.084;5.090;2022-11-18T07:38:53;31.60;;;30.60;;
13605;SDS011;6874;52.084;5.090;2022-11-18T07:41:20;30.80;;;29.80;;
13605;SDS011;6874;52.084;5.090;2022-11-18T07:43:47;33.43;;;32.33;;
13605;SDS011;6874;52.084;5.090;2022-11-18T07:46:18;37.27;;;36.07;;
13605;SDS011;6874;52.084;5.090;2022-11-18T07:48:46;37.40;;;36.20;;
13605;SDS011;6874;52.084;5.090;2022-11-18T07:51:14;38.07;;;36.87;;
13605;SDS011;6874;52.084;5.090;2022-11-18T07:53:41;39.50;;;38.23;;
13605;SDS011;6874;52.084;5.090;2022-11-18T07:56:07;39.97;;;38.70;;
13605;SDS011;6874;52.084;5.090;2022-11-18T07:58:34;42.90;;;41.53;;
13605;SDS011;6874;52.084;5.090;2022-11-18T08:01:07;46.70;;;45.17;;
13605;SDS011;6874;52.084;5.090;2022-11-18T08:03:36;45.33;;;43.87;;
13605;SDS011;6874;52.084;5.090;2022-11-18T08:06:02;43.37;;;41.97;;
13605;SDS011;6874;52.084;5.090;2022-11-18T08:08:29;50.67;;;49.03;;
13605;SDS011;6874;52.084;5.090;2022-11-18T08:10:59;50.73;;;49.07;;
13605;SDS011;6874;52.084;5.090;2022-11-18T08:13:25;52.80;;;51.10;;
13605;SDS011;6874;52.084;5.090;2022-11-18T08:15:53;52.63;;;50.93;;
13605;SDS011;6874;52.084;5.090;2022-11-18T08:18:20;54.60;;;52.87;;
13605;SDS011;6874;52.084;5.090;2022-11-18T08:20:46;51.67;;;50.00;;
13605;SDS011;6874;52.084;5.090;2022-11-18T08:23:13;51.93;;;50.23;;
13605;SDS011;6874;52.084;5.090;2022-11-18T08:25:39;45.53;;;44.03;;
13605;SDS011;6874;52.084;5.090;2022-11-18T08:28:06;51.43;;;49.73;;
13605;SDS011;6874;52.084;5.090;2022-11-18T08:30:32;49.10;;;47.50;;
13605;SDS011;6874;52.084;5.090;2022-11-18T08:32:58;47.37;;;45.87;;
13605;SDS011;6874;52.084;5.090;2022-11-18T08:35:27;45.47;;;44.00;;
13605;SDS011;6874;52.084;5.090;2022-11-18T08:37:54;40.93;;;39.67;;
13605;SDS011;6874;52.084;5.090;2022-11-18T08:40:20;39.97;;;38.67;;
13605;SDS011;6874;52.084;5.090;2022-11-18T08:42:45;35.23;;;34.10;;
13605;SDS011;6874;52.084;5.090;2022-11-18T08:45:11;38.17;;;36.97;;
13605;SDS011;6874;52.084;5.090;2022-11-18T08:47:37;35.47;;;34.33;;
13605;SDS011;6874;52.084;5.090;2022-11-18T08:50:03;32.57;;;31.53;;
13605;SDS011;6874;52.084;5.090;2022-11-18T08:52:30;30.93;;;29.97;;
13605;SDS011;6874;52.084;5.090;2022-11-18T08:54:56;27.07;;;26.20;;
13605;SDS011;6874;52.084;5.090;2022-11-18T08:57:21;29.20;;;28.27;;
13605;SDS011;6874;52.084;5.090;2022-11-18T08:59:47;26.20;;;25.40;;
13605;SDS011;6874;52.084;5.090;2022-11-18T09:02:13;27.73;;;26.83;;
13605;SDS011;6874;52.084;5.090;2022-11-18T09:04:40;22.27;;;21.57;;
13605;SDS011;6874;52.084;5.090;2022-11-18T09:07:05;21.60;;;20.90;;
13605;SDS011;6874;52.084;5.090;2022-11-18T09:09:31;22.00;;;21.30;;
13605;SDS011;6874;52.084;5.090;2022-11-18T09:11:57;20.60;;;19.97;;
13605;SDS011;6874;52.084;5.090;2022-11-18T09:14:23;21.27;;;20.63;;
13605;SDS011;6874;52.084;5.090;2022-11-18T09:16:49;18.00;;;17.43;;
13605;SDS011;6874;52.084;5.090;2022-11-18T09:19:15;20.23;;;19.60;;
13605;SDS011;6874;52.084;5.090;2022-11-18T09:21:41;18.90;;;18.30;;
13605;SDS011;6874;52.084;5.090;2022-11-18T09:24:06;20.30;;;19.70;;
13605;SDS011;6874;52.084;5.090;2022-11-18T09:26:33;19.47;;;18.87;;
13605;SDS011;6874;52.084;5.090;2022-11-18T09:28:59;20.83;;;20.17;;
13605;SDS011;6874;52.084;5.090;2022-11-18T09:31:24;22.00;;;21.30;;
13605;SDS011;6874;52.084;5.090;2022-11-18T09:33:50;20.77;;;20.13;;
13605;SDS011;6874;52.084;5.090;2022-11-18T09:36:17;20.70;;;20.07;;
13605;SDS011;6874;52.084;5.090;2022-11-18T09:38:50;18.23;;;17.67;;
13605;SDS011;6874;52.084;5.090;2022-11-18T09:46:59;16.43;;;15.90;;
13605;SDS011;6874;52.084;5.090;2022-11-18T09:49:33;13.07;;;12.67;;
13605;SDS011;6874;52.084;5.090;2022-11-18T09:52:02;14.03;;;13.63;;
13605;SDS011;6874;52.084;5.090;2022-11-18T09:54:37;14.07;;;13.67;;
13605;SDS011;6874;52.084;5.090;2022-11-18T09:59:40;15.63;;;15.13;;
13605;SDS011;6874;52.084;5.090;2022-11-18T10:04:50;13.43;;;13.03;;
13605;SDS011;6874;52.084;5.090;2022-11-18T10:07:19;18.20;;;17.60;;
13605;SDS011;6874;52.084;5.090;2022-11-18T10:09:50;17.27;;;16.77;;
13605;SDS011;6874;52.084;5.090;2022-11-18T10:12:31;16.60;;;16.10;;
13605;SDS011;6874;52.084;5.090;2022-11-18T10:15:18;16.67;;;16.17;;
13605;SDS011;6874;52.084;5.090;2022-11-18T10:17:58;16.27;;;15.77;;
13605;SDS011;6874;52.084;5.090;2022-11-18T10:20:50;15.87;;;15.37;;
13605;SDS011;6874;52.084;5.090;2022-11-18T10:23:25;16.63;;;16.13;;
13605;SDS011;6874;52.084;5.090;2022-11-18T10:25:56;17.57;;;17.07;;
13605;SDS011;6874;52.084;5.090;2022-11-18T10:28:23;35.07;;;33.67;;
13605;SDS011;6874;52.084;5.090;2022-11-18T10:30:50;130.50;;;126.13;;
13605;SDS011;6874;52.084;5.090;2022-11-18T10:35:45;21.00;;;20.27;;
13605;SDS011;6874;52.084;5.090;2022-11-18T10:41:00;20.20;;;19.50;;
13605;SDS011;6874;52.084;5.090;2022-11-18T10:46:22;34.50;;;33.40;;
13605;SDS011;6874;52.084;5.090;2022-11-18T10:49:05;37.03;;;35.83;;
13605;SDS011;6874;52.084;5.090;2022-11-18T10:59:24;42.70;;;41.30;;
13605;SDS011;6874;52.084;5.090;2022-11-18T11:02:38;42.97;;;41.57;;
13605;SDS011;6874;52.084;5.090;2022-11-18T11:04:48;44.20;;;42.80;;
13605;SDS011;6874;52.084;5.090;2022-11-18T11:07:16;42.87;;;41.47;;
13605;SDS011;6874;52.084;5.090;2022-11-18T11:12:33;37.43;;;36.23;;
13605;SDS011;6874;52.084;5.090;2022-11-18T11:15:04;34.43;;;33.33;;
13605;SDS011;6874;52.084;5.090;2022-11-18T11:22:31;26.47;;;25.67;;
13605;SDS011;6874;52.084;5.090;2022-11-18T11:24:57;25.73;;;24.93;;
13605;SDS011;6874;52.084;5.090;2022-11-18T11:35:29;29.93;;;29.00;;
13605;SDS011;6874;52.084;5.090;2022-11-18T11:38:24;31.70;;;30.70;;
13605;SDS011;6874;52.084;5.090;2022-11-18T11:52:55;52.97;;;51.27;;
13605;SDS011;6874;52.084;5.090;2022-11-18T11:56:15;56.37;;;54.53;;
13605;SDS011;6874;52.084;5.090;2022-11-18T12:01:51;51.50;;;49.80;;
13605;SDS011;6874;52.084;5.090;2022-11-18T12:04:33;48.00;;;46.43;;
13605;SDS011;6874;52.084;5.090;2022-11-18T12:07:05;46.73;;;45.20;;
13605;SDS011;6874;52.084;5.090;2022-11-18T12:12:32;41.87;;;40.47;;
13605;SDS011;6874;52.084;5.090;2022-11-18T12:20:39;44.83;;;43.33;;
13605;SDS011;6874;52.084;5.090;2022-11-18T12:23:17;44.03;;;42.60;;
13605;SDS011;6874;52.084;5.090;2022-11-18T12:28:11;52.30;;;50.57;;
13605;SDS011;6874;52.084;5.090;2022-11-18T12:30:47;49.60;;;47.93;;
13605;SDS011;6874;52.084;5.090;2022-11-18T12:33:14;52.30;;;50.57;;
13605;SDS011;6874;52.084;5.090;2022-11-18T12:35:45;52.23;;;50.53;;
13605;SDS011;6874;52.084;5.090;2022-11-18T12:38:29;54.33;;;52.53;;
13605;SDS011;6874;52.084;5.090;2022-11-18T12:40:56;49.67;;;48.03;;
13605;SDS011;6874;52.084;5.090;2022-11-18T12:46:09;47.83;;;46.23;;
13605;SDS011;6874;52.084;5.090;2022-11-18T12:48:55;44.77;;;43.27;;
13605;SDS011;6874;52.084;5.090;2022-11-18T12:53:48;45.23;;;43.73;;
13605;SDS011;6874;52.084;5.090;2022-11-18T12:56:30;46.33;;;44.83;;
13605;SDS011;6874;52.084;5.090;2022-11-18T12:59:00;40.80;;;39.50;;
13605;SDS011;6874;52.084;5.090;2022-11-18T13:01:27;39.30;;;38.00;;
13605;SDS011;6874;52.084;5.090;2022-11-18T13:04:08;40.27;;;38.97;;
13605;SDS011;6874;52.084;5.090;2022-11-18T13:06:42;32.70;;;31.67;;
13605;SDS011;6874;52.084;5.090;2022-11-18T13:09:16;35.37;;;34.20;;
13605;SDS011;6874;52.084;5.090;2022-11-18T13:11:46;31.87;;;30.87;;
13605;SDS011;6874;52.084;5.090;2022-11-18T13:14:19;30.40;;;29.40;;
13605;SDS011;6874;52.084;5.090;2022-11-18T13:20:32;27.20;;;26.33;;
13605;SDS011;6874;52.084;5.090;2022-11-18T13:25:43;31.17;;;30.17;;
13605;SDS011;6874;52.084;5.090;2022-11-18T13:31:20;31.30;;;30.30;;
13605;SDS011;6874;52.084;5.090;2022-11-18T13:33:54;29.70;;;28.77;;
13605;SDS011;6874;52.084;5.090;2022-11-18T13:36:24;35.53;;;34.40;;
13605;SDS011;6874;52.084;5.090;2022-11-18T13:38:58;34.27;;;33.17;;
13605;SDS011;6874;52.084;5.090;2022-11-18T13:41:28;34.23;;;33.13;;
13605;SDS011;6874;52.084;5.090;2022-11-18T13:46:50;28.50;;;27.60;;
13605;SDS011;6874;52.084;5.090;2022-11-18T13:49:21;33.00;;;31.97;;
13605;SDS011;6874;52.084;5.090;2022-11-18T13:51:52;32.27;;;31.23;;
13605;SDS011;6874;52.084;5.090;2022-11-18T13:54:20;33.53;;;32.47;;
13605;SDS011;6874;52.084;5.090;2022-11-18T13:56:49;31.40;;;30.40;;
13605;SDS011;6874;52.084;5.090;2022-11-18T13:59:16;31.17;;;30.17;;
13605;SDS011;6874;52.084;5.090;2022-11-18T14:01:44;31.47;;;30.47;;
13605;SDS011;6874;52.084;5.090;2022-11-18T14:04:21;27.07;;;26.23;;
13605;SDS011;6874;52.084;5.090;2022-11-18T14:06:50;26.70;;;25.87;;
13605;SDS011;6874;52.084;5.090;2022-11-18T14:09:17;24.53;;;23.73;;
13605;SDS011;6874;52.084;5.090;2022-11-18T14:11:58;23.77;;;23.03;;
13605;SDS011;6874;52.084;5.090;2022-11-18T14:14:27;24.07;;;23.30;;
13605;SDS011;6874;52.084;5.090;2022-11-18T14:17:02;22.90;;;22.20;;
13605;SDS011;6874;52.084;5.090;2022-11-18T14:19:48;19.10;;;18.50;;
13605;SDS011;6874;52.084;5.090;2022-11-18T14:22:20;22.23;;;21.53;;
13605;SDS011;6874;52.084;5.090;2022-11-18T14:33:19;18.27;;;17.67;;
13605;SDS011;6874;52.084;5.090;2022-11-18T14:35:58;19.33;;;18.73;;
13605;SDS011;6874;52.084;5.090;2022-11-18T14:41:12;19.67;;;19.07;;
13605;SDS011;6874;52.084;5.090;2022-11-18T14:43:40;22.47;;;21.77;;
13605;SDS011;6874;52.084;5.090;2022-11-18T14:46:17;21.80;;;21.10;;
13605;SDS011;6874;52.084;5.090;2022-11-18T14:48:43;21.27;;;20.63;;
13605;SDS011;6874;52.084;5.090;2022-11-18T14:51:13;24.57;;;23.77;;
13605;SDS011;6874;52.084;5.090;2022-11-18T14:53:40;27.37;;;26.53;;
13605;SDS011;6874;52.084;5.090;2022-11-18T14:56:10;26.63;;;25.80;;
13605;SDS011;6874;52.084;5.090;2022-11-18T14:59:02;22.27;;;21.57;;
13605;SDS011;6874;52.084;5.090;2022-11-18T15:01:28;29.83;;;28.87;;
13605;SDS011;6874;52.084;5.090;2022-11-18T15:03:53;29.30;;;28.37;;
13605;SDS011;6874;52.084;5.090;2022-11-18T15:06:19;33.13;;;32.07;;
13605;SDS011;6874;52.084;5.090;2022-11-18T15:08:46;39.23;;;37.97;;
13605;SDS011;6874;52.084;5.090;2022-11-18T15:11:13;42.03;;;40.70;;
13605;SDS011;6874;52.084;5.090;2022-11-18T15:13:39;46.40;;;44.93;;
13605;SDS011;6874;52.084;5.090;2022-11-18T15:16:13;48.03;;;46.50;;
13605;SDS011;6874;52.084;5.090;2022-11-18T15:18:46;44.30;;;42.87;;
13605;SDS011;6874;52.084;5.090;2022-11-18T15:21:14;53.47;;;51.73;;
13605;SDS011;6874;52.084;5.090;2022-11-18T15:23:40;55.37;;;53.57;;
13605;SDS011;6874;52.084;5.090;2022-11-18T15:28:41;58.60;;;56.70;;
13605;SDS011;6874;52.084;5.090;2022-11-18T15:31:07;66.23;;;64.13;;
13605;SDS011;6874;52.084;5.090;2022-11-18T15:33:32;64.87;;;62.77;;
13605;SDS011;6874;52.084;5.090;2022-11-18T15:35:58;69.57;;;67.33;;
13605;SDS011;6874;52.084;5.090;2022-11-18T15:38:24;67.18;;;65.00;;
13605;SDS011;6874;52.084;5.090;2022-11-18T15:40:49;75.60;;;73.17;;
13605;SDS011;6874;52.084;5.090;2022-11-18T15:43:15;78.30;;;75.80;;
13605;SDS011;6874;52.084;5.090;2022-11-18T15:45:41;74.70;;;72.30;;
13605;SDS011;6874;52.084;5.090;2022-11-18T15:48:07;74.23;;;71.83;;
13605;SDS011;6874;52.084;5.090;2022-11-18T15:50:33;74.93;;;72.53;;
13605;SDS011;6874;52.084;5.090;2022-11-18T15:52:58;70.70;;;68.43;;
13605;SDS011;6874;52.084;5.090;2022-11-18T15:55:24;76.73;;;74.27;;
13605;SDS011;6874;52.084;5.090;2022-11-18T15:57:49;71.83;;;69.53;;
13605;SDS011;6874;52.084;5.090;2022-11-18T16:00:15;68.67;;;66.47;;
13605;SDS011;6874;52.084;5.090;2022-11-18T16:02:41;71.10;;;68.80;;
13605;SDS011;6874;52.084;5.090;2022-11-18T16:05:07;65.90;;;63.77;;
13605;SDS011;6874;52.084;5.090;2022-11-18T16:07:32;69.60;;;67.37;;
13605;SDS011;6874;52.084;5.090;2022-11-18T16:09:58;70.43;;;68.17;;
13605;SDS011;6874;52.084;5.090;2022-11-18T16:12:42;68.40;;;66.20;;
13605;SDS011;6874;52.084;5.090;2022-11-18T16:15:10;66.40;;;64.27;;
13605;SDS011;6874;52.084;5.090;2022-11-18T16:17:55;59.50;;;57.57;;
13605;SDS011;6874;52.084;5.090;2022-11-18T16:20:20;66.67;;;64.57;;
13605;SDS011;6874;52.084;5.090;2022-11-18T16:22:46;63.40;;;61.37;;
13605;SDS011;6874;52.084;5.090;2022-11-18T16:25:12;62.93;;;60.93;;
13605;SDS011;6874;52.084;5.090;2022-11-18T16:27:37;65.03;;;62.93;;
13605;SDS011;6874;52.084;5.090;2022-11-18T16:30:03;66.70;;;64.53;;
13605;SDS011;6874;52.084;5.090;2022-11-18T16:32:29;66.67;;;64.47;;
13605;SDS011;6874;52.084;5.090;2022-11-18T16:34:55;67.67;;;65.47;;
13605;SDS011;6874;52.084;5.090;2022-11-18T16:37:21;61.73;;;59.73;;
13605;SDS011;6874;52.084;5.090;2022-11-18T16:39:47;62.87;;;60.87;;
13605;SDS011;6874;52.084;5.090;2022-11-18T16:42:12;65.33;;;63.23;;
13605;SDS011;6874;52.084;5.090;2022-11-18T16:44:38;60.27;;;58.33;;
13605;SDS011;6874;52.084;5.090;2022-11-18T16:47:04;60.23;;;58.27;;
13605;SDS011;6874;52.084;5.090;2022-11-18T16:49:30;60.03;;;58.13;;
13605;SDS011;6874;52.084;5.090;2022-11-18T16:51:56;63.50;;;61.43;;